createdAt,value
2018-11-23T00:01:09.512Z,29.33
2018-11-23T00:03:37.426Z,27.00
2018-11-23T00:06:05.513Z,33.40
2018-11-23T00:08:33.452Z,30.43
2018-11-23T00:11:05.173Z,31.20
2018-11-23T00:13:33.063Z,30.67
2018-11-23T00:16:00.949Z,29.33
2018-11-23T00:18:28.817Z,29.80
2018-11-23T00:20:56.692Z,28.13
2018-11-23T00:23:24.556Z,31.90
2018-11-23T00:25:52.547Z,27.33
2018-11-23T00:28:20.492Z,30.33
2018-11-23T00:30:48.460Z,30.27
2018-11-23T00:33:16.412Z,27.47
2018-11-23T00:35:44.287Z,33.80
2018-11-23T00:38:12.224Z,28.90
2018-11-23T00:40:40.120Z,29.97
2018-11-23T00:43:07.996Z,33.20
2018-11-23T00:45:42.811Z,37.23
2018-11-23T00:48:03.786Z,31.90
2018-11-23T00:50:31.818Z,29.53
2018-11-23T00:53:00.367Z,31.27
2018-11-23T00:55:28.875Z,33.67
2018-11-23T00:57:56.801Z,35.17
2018-11-23T01:00:26.307Z,32.27
2018-11-23T01:02:54.717Z,33.30
2018-11-23T01:05:22.654Z,34.40
2018-11-23T01:07:50.571Z,31.87
2018-11-23T01:10:19.636Z,31.30
2018-11-23T01:12:48.516Z,26.27
2018-11-23T01:15:16.439Z,32.90
2018-11-23T01:17:44.540Z,30.77
2018-11-23T01:20:14.429Z,28.63
2018-11-23T01:22:43.341Z,32.87
2018-11-23T01:25:11.759Z,29.13
2018-11-23T01:27:40.454Z,29.00
2018-11-23T01:30:11.280Z,32.10
2018-11-23T01:32:39.256Z,33.83
2018-11-23T01:35:07.135Z,33.03
2018-11-23T01:37:35.080Z,32.13
2018-11-23T01:40:02.999Z,30.23
2018-11-23T01:42:30.939Z,29.87
2018-11-23T01:44:58.872Z,33.20
2018-11-23T01:47:26.859Z,32.00
2018-11-23T01:49:54.735Z,32.73
2018-11-23T01:52:22.784Z,32.73
2018-11-23T01:54:50.765Z,31.37
2018-11-23T01:57:18.636Z,29.90
2018-11-23T01:59:46.596Z,30.43
2018-11-23T02:02:14.485Z,31.23
2018-11-23T02:04:42.347Z,29.97
2018-11-23T02:07:10.248Z,31.03
2018-11-23T02:09:38.147Z,29.87
2018-11-23T02:12:06.272Z,32.57
2018-11-23T02:14:34.292Z,33.38
2018-11-23T02:17:02.859Z,31.83
2018-11-23T02:19:30.775Z,38.17
2018-11-23T02:21:58.744Z,35.50
2018-11-23T02:24:26.665Z,34.73
2018-11-23T02:26:54.563Z,36.00
2018-11-23T02:29:22.544Z,34.23
2018-11-23T02:31:50.495Z,36.47
2018-11-23T02:34:18.372Z,34.70
2018-11-23T02:36:46.352Z,30.80
2018-11-23T02:39:14.227Z,37.07
2018-11-23T02:41:42.100Z,34.60
2018-11-23T02:44:10.249Z,37.47
2018-11-23T02:46:38.125Z,37.67
2018-11-23T02:49:06.122Z,36.03
2018-11-23T02:51:35.468Z,31.83
2018-11-23T02:54:03.460Z,38.43
2018-11-23T02:56:37.051Z,33.77
2018-11-23T02:59:05.315Z,36.37
2018-11-23T03:01:33.157Z,35.83
2018-11-23T03:04:01.160Z,34.43
2018-11-23T03:06:29.044Z,33.23
2018-11-23T03:08:57.008Z,38.77
2018-11-23T03:11:24.956Z,35.73
2018-11-23T03:13:52.919Z,37.97
2018-11-23T03:16:20.932Z,41.13
2018-11-23T03:18:49.778Z,42.97
2018-11-23T03:21:17.682Z,39.07
2018-11-23T03:23:45.642Z,40.67
2018-11-23T03:26:13.538Z,35.80
2018-11-23T03:28:41.483Z,34.63
2018-11-23T03:31:12.397Z,36.00
2018-11-23T03:33:37.227Z,32.93
2018-11-23T03:36:05.420Z,38.88
2018-11-23T03:38:33.361Z,40.60
2018-11-23T03:41:01.292Z,40.87
2018-11-23T03:43:29.283Z,39.43
2018-11-23T03:45:57.163Z,40.65
2018-11-23T03:48:25.174Z,39.90
2018-11-23T03:50:53.028Z,39.43
2018-11-23T03:53:20.905Z,36.27
2018-11-23T03:55:48.780Z,37.23
2018-11-23T03:58:16.678Z,38.50
2018-11-23T04:00:44.588Z,39.00
2018-11-23T04:03:12.482Z,37.40
2018-11-23T04:05:40.368Z,38.40
2018-11-23T04:08:08.264Z,37.08
2018-11-23T04:10:36.161Z,33.53
2018-11-23T04:13:04.081Z,44.13
2018-11-23T04:15:31.986Z,42.05
2018-11-23T04:17:59.888Z,36.42
2018-11-23T04:20:27.767Z,35.47
2018-11-23T04:22:55.672Z,39.18
2018-11-23T04:25:23.580Z,32.50
2018-11-23T04:27:51.487Z,37.63
2018-11-23T04:30:19.431Z,37.93
2018-11-23T04:32:47.969Z,38.77
2018-11-23T04:35:17.104Z,39.77
2018-11-23T04:37:45.632Z,36.47
2018-11-23T04:40:14.116Z,35.03
2018-11-23T04:42:42.264Z,39.37
2018-11-23T04:45:10.588Z,35.57
2018-11-23T04:47:38.874Z,39.70
2018-11-23T04:50:07.778Z,40.55
2018-11-23T04:52:35.664Z,40.50
2018-11-23T04:55:03.549Z,34.45
2018-11-23T04:57:31.423Z,38.60
2018-11-23T04:59:59.313Z,34.85
2018-11-23T05:02:27.227Z,38.93
2018-11-23T05:04:55.119Z,39.73
2018-11-23T05:07:23.041Z,39.60
2018-11-23T05:09:50.984Z,43.02
2018-11-23T05:12:18.888Z,42.20
2018-11-23T05:14:46.797Z,39.18
2018-11-23T05:17:14.687Z,38.03
2018-11-23T05:19:42.559Z,40.53
2018-11-23T05:22:10.443Z,42.07
2018-11-23T05:24:38.372Z,37.13
2018-11-23T05:27:06.261Z,37.17
2018-11-23T05:29:34.239Z,39.08
2018-11-23T05:32:02.166Z,39.73
2018-11-23T05:34:30.108Z,38.53
2018-11-23T05:36:58.012Z,37.38
2018-11-23T05:39:25.906Z,42.33
2018-11-23T05:41:53.830Z,38.03
2018-11-23T05:44:21.752Z,38.70
2018-11-23T05:46:49.675Z,33.58
2018-11-23T05:49:17.567Z,43.70
2018-11-23T05:51:50.560Z,36.05
2018-11-23T05:54:18.488Z,39.70
2018-11-23T05:56:46.404Z,32.90
2018-11-23T05:59:14.329Z,42.73
2018-11-23T06:01:43.007Z,39.23
2018-11-23T06:04:10.897Z,35.97
2018-11-23T06:06:42.520Z,40.73
2018-11-23T06:09:06.748Z,39.90
2018-11-23T06:11:34.724Z,35.53
2018-11-23T06:14:02.673Z,42.43
2018-11-23T06:16:30.711Z,40.43
2018-11-23T06:18:58.600Z,36.27
2018-11-23T06:21:26.517Z,37.07
2018-11-23T06:23:54.550Z,41.90
2018-11-23T06:26:23.703Z,38.98
2018-11-23T06:28:51.713Z,40.47
2018-11-23T06:31:19.604Z,39.18
2018-11-23T06:33:48.156Z,39.98
2018-11-23T06:36:16.068Z,40.58
2018-11-23T06:38:45.357Z,41.57
2018-11-23T06:41:13.323Z,46.33
2018-11-23T06:43:41.311Z,42.75
2018-11-23T06:46:10.366Z,40.00
2018-11-23T06:48:38.275Z,48.25
2018-11-23T06:51:06.273Z,38.63
2018-11-23T06:53:34.237Z,40.63
2018-11-23T06:56:03.064Z,39.73
2018-11-23T06:58:30.975Z,36.10
2018-11-23T07:00:58.884Z,38.67
2018-11-23T07:03:27.198Z,40.57
2018-11-23T07:05:55.452Z,38.23
2018-11-23T07:08:23.750Z,44.73
2018-11-23T07:10:52.101Z,38.38
2018-11-23T07:13:20.027Z,39.63
2018-11-23T07:15:47.951Z,39.60
2018-11-23T07:18:15.898Z,38.60
2018-11-23T07:20:43.777Z,39.18
2018-11-23T07:23:11.693Z,42.10
2018-11-23T07:25:39.596Z,35.53
2018-11-23T07:28:07.628Z,39.63
2018-11-23T07:30:35.544Z,39.73
2018-11-23T07:33:03.439Z,41.10
2018-11-23T07:35:31.372Z,37.33
2018-11-23T07:37:59.464Z,38.77
2018-11-23T07:40:35.428Z,42.40
2018-11-23T07:43:03.429Z,40.80
2018-11-23T07:45:31.500Z,38.43
2018-11-23T07:48:02.269Z,35.97
2018-11-23T07:50:30.956Z,37.03
2018-11-23T07:52:59.129Z,35.97
2018-11-23T07:55:27.155Z,41.07
2018-11-23T07:57:56.319Z,35.77
2018-11-23T08:00:26.223Z,35.97
2018-11-23T08:02:54.093Z,38.33
2018-11-23T08:05:22.324Z,37.23
2018-11-23T08:07:50.241Z,34.37
2018-11-23T08:10:18.315Z,33.20
2018-11-23T08:12:48.449Z,36.50
2018-11-23T08:15:18.155Z,33.57
2018-11-23T08:17:47.369Z,35.60
2018-11-23T08:20:17.248Z,33.63
2018-11-23T08:22:45.452Z,32.73
2018-11-23T08:25:14.567Z,35.97
2018-11-23T08:27:42.940Z,33.67
2018-11-23T08:30:14.900Z,34.83
2018-11-23T08:32:42.863Z,33.67
2018-11-23T08:35:10.985Z,32.20
2018-11-23T08:37:39.006Z,31.57
2018-11-23T08:40:09.662Z,38.47
2018-11-23T08:42:37.628Z,35.03
2018-11-23T08:45:06.917Z,34.97
2018-11-23T08:47:34.902Z,35.77
2018-11-23T08:50:02.867Z,34.90
2018-11-23T08:52:30.827Z,36.47
2018-11-23T08:54:58.811Z,32.30
2018-11-23T08:57:26.768Z,30.97
2018-11-23T08:59:55.655Z,32.13
2018-11-23T09:02:23.695Z,32.73
2018-11-23T09:04:51.681Z,31.57
2018-11-23T09:07:19.655Z,32.60
2018-11-23T09:09:47.864Z,32.23
2018-11-23T09:12:15.903Z,30.93
2018-11-23T09:14:43.866Z,34.67
2018-11-23T09:17:11.839Z,32.20
2018-11-23T09:19:39.758Z,36.50
2018-11-23T09:22:08.926Z,34.73
2018-11-23T09:24:36.885Z,35.77
2018-11-23T09:27:04.792Z,34.37
2018-11-23T09:29:33.335Z,29.90
2018-11-23T09:32:01.369Z,30.40
2018-11-23T09:34:29.368Z,28.37
2018-11-23T09:36:57.308Z,30.30
2018-11-23T09:39:25.204Z,31.90
2018-11-23T09:41:53.616Z,30.77
2018-11-23T09:44:21.785Z,30.60
2018-11-23T09:46:49.520Z,30.30
2018-11-23T09:49:17.496Z,30.50
2018-11-23T09:51:47.320Z,28.80
2018-11-23T09:54:15.272Z,27.90
2018-11-23T09:56:43.220Z,30.77
2018-11-23T09:59:11.297Z,29.87
2018-11-23T10:01:39.288Z,30.97
2018-11-23T10:04:07.238Z,32.63
2018-11-23T10:06:35.219Z,29.97
2018-11-23T10:09:03.257Z,29.90
2018-11-23T10:11:31.163Z,31.93
2018-11-23T10:13:59.055Z,37.03
2018-11-23T10:16:26.991Z,30.30
2018-11-23T10:18:54.862Z,30.67
2018-11-23T10:21:22.896Z,32.97
2018-11-23T10:23:50.921Z,36.03
2018-11-23T10:26:18.983Z,41.60
2018-11-23T10:28:46.943Z,31.17
2018-11-23T10:31:14.912Z,26.97
2018-11-23T10:33:43.908Z,30.73
2018-11-23T10:36:11.796Z,28.80
2018-11-23T10:38:39.700Z,30.10
2018-11-23T10:41:07.735Z,28.80
2018-11-23T10:43:35.572Z,27.43
2018-11-23T10:46:03.550Z,30.27
2018-11-23T10:48:31.432Z,32.10
2018-11-23T10:50:59.370Z,30.57
2018-11-23T10:53:27.346Z,27.43
2018-11-23T10:55:55.276Z,28.90
2018-11-23T10:58:23.170Z,29.97
2018-11-23T11:00:56.457Z,28.30
2018-11-23T11:03:38.569Z,28.10
2018-11-23T11:06:12.416Z,27.17
2018-11-23T11:11:27.052Z,27.13
2018-11-23T11:13:54.935Z,27.20
2018-11-23T11:16:22.856Z,29.47
2018-11-23T11:18:50.772Z,29.60
2018-11-23T11:21:18.699Z,28.30
2018-11-23T11:23:46.618Z,33.30
2018-11-23T11:26:14.500Z,31.17
2018-11-23T11:28:42.396Z,28.13
2018-11-23T11:31:10.322Z,35.17
2018-11-23T11:33:38.214Z,32.23
2018-11-23T11:36:06.125Z,31.63
2018-11-23T11:38:34.012Z,30.67
2018-11-23T11:41:01.960Z,33.43
2018-11-23T11:43:30.907Z,32.40
2018-11-23T11:45:58.819Z,30.40
2018-11-23T11:48:26.733Z,34.03
2018-11-23T11:50:54.646Z,28.93
2018-11-23T11:53:22.532Z,31.17
2018-11-23T11:55:50.410Z,27.73
2018-11-23T11:58:18.368Z,32.10
2018-11-23T12:00:46.316Z,30.50
2018-11-23T12:03:14.235Z,32.40
2018-11-23T12:05:42.142Z,31.43
2018-11-23T12:08:10.089Z,29.73
2018-11-23T12:10:37.975Z,30.90
2018-11-23T12:13:05.898Z,33.27
2018-11-23T12:15:33.812Z,30.27
2018-11-23T12:18:01.838Z,31.90
2018-11-23T12:20:29.722Z,29.87
2018-11-23T12:22:57.628Z,32.90
2018-11-23T12:25:25.539Z,28.90
2018-11-23T12:27:53.485Z,30.80
2018-11-23T12:30:21.880Z,29.20
2018-11-23T12:32:50.652Z,32.57
2018-11-23T12:35:19.534Z,27.90
2018-11-23T12:37:47.408Z,26.67
2018-11-23T12:40:16.521Z,30.30
2018-11-23T12:42:45.105Z,28.13
2018-11-23T12:45:15.195Z,30.07
2018-11-23T12:47:43.080Z,28.13
2018-11-23T12:50:18.844Z,25.53
2018-11-23T12:52:46.885Z,27.43
2018-11-23T12:55:15.232Z,28.63
2018-11-23T12:57:43.304Z,30.13
2018-11-23T13:00:15.969Z,31.27
2018-11-23T13:02:44.011Z,26.17
2018-11-23T13:05:11.909Z,28.70
2018-11-23T13:07:39.866Z,34.00
2018-11-23T13:10:07.780Z,31.00
2018-11-23T13:12:35.933Z,28.37
2018-11-23T13:15:04.018Z,27.13
2018-11-23T13:17:31.901Z,28.23
2018-11-23T13:19:59.821Z,25.73
2018-11-23T13:22:27.726Z,24.67
2018-11-23T13:24:55.623Z,26.43
2018-11-23T13:27:24.394Z,29.13
2018-11-23T13:29:52.344Z,25.63
2018-11-23T13:32:20.271Z,25.17
2018-11-23T13:34:48.159Z,24.50
2018-11-23T13:37:16.044Z,36.20
2018-11-23T13:39:44.015Z,33.70
2018-11-23T13:42:11.911Z,24.77
2018-11-23T13:44:39.809Z,25.70
2018-11-23T13:47:07.747Z,25.87
2018-11-23T13:49:35.681Z,30.27
2018-11-23T13:52:03.605Z,23.67
2018-11-23T13:54:31.549Z,25.87
2018-11-23T13:56:59.457Z,25.23
2018-11-23T13:59:27.400Z,25.50
2018-11-23T14:01:55.279Z,24.70
2018-11-23T14:04:23.301Z,25.87
2018-11-23T14:06:51.208Z,25.93
2018-11-23T14:09:19.128Z,22.87
2018-11-23T14:11:47.044Z,26.73
2018-11-23T14:14:14.933Z,29.30
2018-11-23T14:16:42.856Z,25.20
2018-11-23T14:19:10.748Z,22.77
2018-11-23T14:21:38.644Z,24.80
2018-11-23T14:24:06.588Z,26.50
2018-11-23T14:26:34.552Z,24.43
2018-11-23T14:29:02.449Z,25.57
2018-11-23T14:31:30.361Z,26.93
2018-11-23T14:33:58.296Z,26.40
2018-11-23T14:36:26.201Z,28.70
2018-11-23T14:38:54.275Z,23.97
2018-11-23T14:41:22.148Z,25.27
2018-11-23T14:43:50.364Z,27.30
2018-11-23T14:46:18.497Z,28.33
2018-11-23T14:48:46.377Z,27.53
2018-11-23T14:51:14.317Z,24.50
2018-11-23T14:53:42.307Z,27.23
2018-11-23T14:56:10.183Z,28.60
2018-11-23T14:58:38.118Z,27.23
2018-11-23T15:01:06.004Z,27.67
2018-11-23T15:03:33.965Z,26.30
2018-11-23T15:06:01.870Z,29.90
2018-11-23T15:08:29.766Z,28.87
2018-11-23T15:10:57.662Z,28.47
2018-11-23T15:13:25.542Z,30.27
2018-11-23T15:15:53.419Z,30.20
2018-11-23T15:18:21.323Z,26.60
2018-11-23T15:20:49.232Z,24.53
2018-11-23T15:23:17.831Z,23.13
2018-11-23T15:25:45.734Z,19.77
2018-11-23T15:28:14.148Z,23.30
2018-11-23T15:30:42.790Z,18.13
2018-11-23T15:33:12.103Z,15.97
2018-11-23T15:35:40.255Z,20.43
2018-11-23T15:38:10.298Z,17.50
2018-11-23T15:40:37.166Z,19.47
2018-11-23T15:43:06.552Z,17.97
2018-11-23T15:45:35.144Z,19.37
2018-11-23T15:48:03.431Z,20.97
2018-11-23T15:50:32.764Z,24.17
2018-11-23T15:53:00.691Z,19.33
2018-11-23T15:55:29.604Z,19.60
2018-11-23T15:57:59.097Z,19.60
2018-11-23T16:00:29.168Z,19.27
2018-11-23T16:02:57.046Z,21.23
2018-11-23T16:05:25.100Z,17.07
2018-11-23T16:07:53.736Z,16.27
2018-11-23T16:10:26.310Z,19.50
2018-11-23T16:12:55.566Z,20.17
2018-11-23T16:15:23.956Z,18.33
2018-11-23T16:17:52.374Z,19.83
2018-11-23T16:20:21.715Z,19.40
2018-11-23T16:22:50.997Z,20.53
2018-11-23T16:25:19.067Z,25.53
2018-11-23T16:27:48.380Z,21.87
2018-11-23T16:30:17.979Z,24.77
2018-11-23T16:32:47.054Z,20.40
2018-11-23T16:35:16.601Z,22.93
2018-11-23T16:37:44.653Z,24.57
2018-11-23T16:43:12.799Z,24.57
2018-11-23T16:45:41.299Z,23.20
2018-11-23T16:48:10.196Z,25.80
2018-11-23T16:50:38.156Z,26.60
2018-11-23T16:53:06.101Z,25.60
2018-11-23T16:55:34.068Z,22.97
2018-11-23T16:58:03.587Z,22.97
2018-11-23T17:00:32.718Z,25.33
2018-11-23T17:03:04.984Z,23.33
2018-11-23T17:05:34.464Z,22.47
2018-11-23T17:08:02.401Z,23.30
2018-11-23T17:13:17.119Z,21.63
2018-11-23T17:15:45.186Z,24.53
2018-11-23T17:18:14.475Z,24.33
2018-11-23T17:20:42.487Z,21.03
2018-11-23T17:23:11.344Z,24.20
2018-11-23T17:25:39.262Z,20.23
2018-11-23T17:28:08.366Z,26.27
2018-11-23T17:30:36.790Z,22.70
2018-11-23T17:33:04.909Z,21.93
2018-11-23T17:35:32.816Z,22.00
2018-11-23T17:38:00.712Z,21.60
2018-11-23T17:40:30.204Z,25.23
2018-11-23T17:42:58.545Z,24.13
2018-11-23T17:45:27.327Z,26.03
2018-11-23T17:47:55.538Z,26.67
2018-11-23T17:50:24.857Z,25.27
2018-11-23T17:52:52.911Z,24.50
2018-11-23T17:55:20.836Z,29.33
2018-11-23T17:57:49.257Z,24.83
2018-11-23T18:00:18.883Z,23.23
2018-11-23T18:02:47.398Z,25.93
2018-11-23T18:05:16.393Z,28.07
2018-11-23T18:07:44.428Z,23.10
2018-11-23T18:10:14.255Z,22.70
2018-11-23T18:12:42.359Z,23.57
2018-11-23T18:15:11.510Z,22.83
2018-11-23T18:17:39.419Z,23.23
2018-11-23T18:20:08.374Z,20.83
2018-11-23T18:22:36.370Z,23.10
2018-11-23T18:25:04.673Z,23.90
2018-11-23T18:27:33.596Z,24.03
2018-11-23T18:30:00.536Z,23.57
2018-11-23T18:32:28.448Z,23.87
2018-11-23T18:34:56.369Z,24.60
2018-11-23T18:37:24.385Z,24.40
2018-11-23T18:39:52.436Z,26.53
2018-11-23T18:42:20.435Z,26.30
2018-11-23T18:44:48.495Z,25.10
2018-11-23T18:47:16.407Z,29.00
2018-11-23T18:49:47.005Z,34.03
2018-11-23T18:52:19.047Z,26.27
2018-11-23T18:54:46.971Z,25.80
2018-11-23T18:57:14.884Z,27.70
2018-11-23T18:59:42.771Z,26.13
2018-11-23T19:02:10.821Z,24.30
2018-11-23T19:04:38.728Z,27.40
2018-11-23T19:07:08.651Z,26.67
2018-11-23T19:09:34.603Z,25.73
2018-11-23T19:12:02.513Z,27.40
2018-11-23T19:14:30.427Z,28.93
2018-11-23T19:16:58.352Z,26.60
2018-11-23T19:19:26.285Z,26.57
2018-11-23T19:21:54.268Z,27.33
2018-11-23T19:24:22.265Z,28.03
2018-11-23T19:26:50.191Z,31.47
2018-11-23T19:29:18.076Z,27.33
2018-11-23T19:31:46.044Z,33.20
2018-11-23T19:34:14.011Z,26.23
2018-11-23T19:36:41.910Z,27.03
2018-11-23T19:39:09.812Z,28.03
2018-11-23T19:41:37.701Z,25.60
2018-11-23T19:44:06.056Z,27.30
2018-11-23T19:46:34.149Z,26.60
2018-11-23T19:49:02.059Z,30.90
2018-11-23T19:51:30.515Z,25.30
2018-11-23T19:53:58.485Z,23.67
2018-11-23T19:56:26.396Z,26.53
2018-11-23T19:58:54.303Z,25.07
2018-11-23T20:01:22.205Z,27.00
2018-11-23T20:03:50.120Z,28.13
2018-11-23T20:06:18.036Z,27.43
2018-11-23T20:08:45.975Z,26.43
2018-11-23T20:11:13.867Z,33.00
2018-11-23T20:13:41.748Z,26.47
2018-11-23T20:16:09.690Z,26.20
2018-11-23T20:18:37.625Z,25.90
2018-11-23T20:21:05.530Z,29.97
2018-11-23T20:23:33.448Z,27.33
2018-11-23T20:26:01.344Z,28.50
2018-11-23T20:28:29.297Z,29.40
2018-11-23T20:30:57.189Z,26.43
2018-11-23T20:33:25.081Z,33.23
2018-11-23T20:35:52.968Z,31.03
2018-11-23T20:38:20.872Z,30.47
2018-11-23T20:40:48.816Z,30.10
2018-11-23T20:43:16.741Z,32.67
2018-11-23T20:45:44.642Z,32.07
2018-11-23T20:48:12.553Z,28.13
2018-11-23T20:50:40.455Z,29.30
2018-11-23T20:53:08.457Z,30.07
2018-11-23T20:55:36.359Z,28.23
2018-11-23T20:58:04.382Z,30.87
2018-11-23T21:00:32.329Z,27.67
2018-11-23T21:03:00.229Z,30.33
2018-11-23T21:05:28.124Z,29.30
2018-11-23T21:07:56.027Z,29.50
2018-11-23T21:10:24.449Z,32.07
2018-11-23T21:12:52.465Z,30.80
2018-11-23T21:15:29.811Z,32.47
2018-11-23T21:17:59.453Z,25.33
2018-11-23T21:20:27.336Z,33.40
2018-11-23T21:22:55.423Z,26.23
2018-11-23T21:25:23.311Z,30.60
2018-11-23T21:27:51.218Z,27.90
2018-11-23T21:30:20.699Z,30.67
2018-11-23T21:32:48.668Z,34.50
2018-11-23T21:35:16.584Z,37.47
2018-11-23T21:37:44.564Z,32.00
2018-11-23T21:40:13.716Z,34.20
2018-11-23T21:42:41.636Z,37.53
2018-11-23T21:45:10.159Z,31.37
2018-11-23T21:47:38.091Z,33.80
2018-11-23T21:50:08.169Z,31.77
2018-11-23T21:52:36.559Z,31.70
2018-11-23T21:55:05.730Z,30.07
2018-11-23T21:57:33.626Z,29.97
2018-11-23T22:00:01.549Z,31.53
2018-11-23T22:02:29.576Z,26.20
2018-11-23T22:04:57.531Z,31.73
2018-11-23T22:07:25.407Z,31.67
2018-11-23T22:09:53.379Z,28.50
2018-11-23T22:12:21.324Z,30.67
2018-11-23T22:14:49.322Z,27.07
2018-11-23T22:17:17.279Z,26.93
2018-11-23T22:19:45.147Z,28.77
2018-11-23T22:22:13.129Z,30.20
2018-11-23T22:24:41.085Z,30.70
2018-11-23T22:27:09.060Z,29.33
2018-11-23T22:29:37.128Z,29.67
2018-11-23T22:32:05.215Z,28.43
2018-11-23T22:34:33.183Z,33.13
2018-11-23T22:37:01.245Z,28.70
2018-11-23T22:39:29.198Z,29.07
2018-11-23T22:41:57.196Z,30.00
2018-11-23T22:44:25.144Z,34.40
2018-11-23T22:46:53.114Z,31.17
2018-11-23T22:49:21.095Z,28.87
2018-11-23T22:51:49.015Z,27.37
2018-11-23T22:54:17.274Z,24.83
2018-11-23T22:56:45.739Z,32.23
2018-11-23T22:59:13.780Z,29.67
2018-11-23T23:01:41.748Z,26.73
2018-11-23T23:04:09.688Z,29.43
2018-11-23T23:06:37.582Z,29.23
2018-11-23T23:09:07.385Z,33.53
2018-11-23T23:11:35.364Z,30.53
2018-11-23T23:14:03.335Z,33.10
2018-11-23T23:16:31.208Z,31.37
2018-11-23T23:18:59.180Z,29.97
2018-11-23T23:21:27.144Z,28.93
2018-11-23T23:23:55.116Z,28.40
2018-11-23T23:26:23.080Z,32.50
2018-11-23T23:28:50.960Z,30.33
2018-11-23T23:31:18.883Z,32.77
2018-11-23T23:33:46.849Z,31.40
2018-11-23T23:36:14.750Z,29.73
2018-11-23T23:38:42.638Z,32.47
2018-11-23T23:41:10.593Z,29.50
2018-11-23T23:43:38.465Z,29.90
2018-11-23T23:46:06.443Z,29.93
2018-11-23T23:48:34.512Z,29.80
2018-11-23T23:51:02.468Z,36.00
2018-11-23T23:53:30.432Z,30.20
2018-11-23T23:55:58.322Z,31.77
2018-11-23T23:58:26.268Z,31.20
